createdAt,value
2024-05-09T00:03:55.120Z,3.63
2024-05-09T00:08:56.939Z,6.60
2024-05-09T00:13:58.808Z,6.20
2024-05-09T00:19:00.703Z,6.40
2024-05-09T00:24:02.513Z,3.05
2024-05-09T00:29:04.418Z,1.80
2024-05-09T00:34:06.305Z,2.58
2024-05-09T00:39:08.286Z,2.00
2024-05-09T00:44:10.160Z,2.97
2024-05-09T00:49:12.814Z,4.25
2024-05-09T00:54:15.648Z,3.25
2024-05-09T00:59:17.716Z,3.22
2024-05-09T01:04:19.643Z,2.50
2024-05-09T01:09:21.504Z,3.85
2024-05-09T01:14:23.420Z,3.15
2024-05-09T01:19:29.381Z,4.75
2024-05-09T01:24:31.294Z,5.60
2024-05-09T01:29:33.344Z,2.83
2024-05-09T01:34:35.228Z,4.43
2024-05-09T01:39:37.139Z,5.75
2024-05-09T01:44:38.960Z,3.38
2024-05-09T01:49:40.887Z,8.70
2024-05-09T01:54:42.808Z,2.38
2024-05-09T01:59:44.654Z,3.60
2024-05-09T02:04:47.852Z,4.53
2024-05-09T02:09:53.370Z,6.93
2024-05-09T02:14:55.251Z,6.13
2024-05-09T02:19:57.112Z,6.45
2024-05-09T02:24:58.993Z,3.55
2024-05-09T02:30:00.856Z,3.28
2024-05-09T02:35:02.756Z,4.63
2024-05-09T02:40:05.803Z,5.85
2024-05-09T02:45:10.859Z,3.30
2024-05-09T02:50:16.211Z,8.73
2024-05-09T02:55:21.120Z,3.53
2024-05-09T03:00:29.539Z,3.80
2024-05-09T03:05:39.157Z,6.93
2024-05-09T03:10:41.181Z,4.35
2024-05-09T03:15:43.862Z,3.28
2024-05-09T03:20:45.847Z,3.75
2024-05-09T03:25:47.766Z,4.28
2024-05-09T03:30:49.612Z,4.53
2024-05-09T03:35:51.515Z,10.85
2024-05-09T03:40:53.446Z,3.17
2024-05-09T03:45:55.898Z,5.82
2024-05-09T03:50:57.741Z,4.05
2024-05-09T03:55:59.689Z,5.82
2024-05-09T04:01:01.674Z,7.47
2024-05-09T04:06:03.691Z,5.45
2024-05-09T04:11:06.772Z,5.00
2024-05-09T04:16:10.569Z,4.55
2024-05-09T04:21:12.380Z,9.88
2024-05-09T04:26:14.329Z,4.07
2024-05-09T04:31:16.149Z,4.47
2024-05-09T04:36:18.046Z,6.80
2024-05-09T04:41:20.419Z,8.05
2024-05-09T04:46:22.307Z,4.53
2024-05-09T04:51:24.207Z,10.27
2024-05-09T04:56:26.096Z,7.65
2024-05-09T05:01:30.472Z,6.57
2024-05-09T05:06:32.421Z,10.65
2024-05-09T05:11:34.331Z,5.55
2024-05-09T05:16:36.279Z,4.32
2024-05-09T05:21:40.766Z,5.03
2024-05-09T05:26:42.674Z,8.63
2024-05-09T05:31:44.729Z,8.35
2024-05-09T05:36:46.732Z,3.15
2024-05-09T05:41:51.514Z,6.85
2024-05-09T05:46:53.463Z,4.97
2024-05-09T05:51:55.322Z,4.43
2024-05-09T05:56:58.991Z,5.43
2024-05-09T06:02:00.862Z,6.93
2024-05-09T06:07:04.282Z,7.68
2024-05-09T06:12:08.494Z,3.75
2024-05-09T06:17:10.584Z,8.05
2024-05-09T06:22:12.555Z,7.53
2024-05-09T06:27:14.362Z,4.03
2024-05-09T06:32:16.402Z,2.55
2024-05-09T06:37:20.940Z,4.50
2024-05-09T06:42:23.087Z,3.53
2024-05-09T06:47:25.019Z,3.55
2024-05-09T06:52:26.981Z,2.92
2024-05-09T06:57:31.007Z,3.55
2024-05-09T07:02:32.951Z,3.70
2024-05-09T07:07:34.835Z,2.90
2024-05-09T07:12:36.655Z,3.10
2024-05-09T07:17:38.653Z,2.75
2024-05-09T07:22:40.564Z,2.72
2024-05-09T07:27:42.380Z,3.03
2024-05-09T07:32:45.128Z,3.42
2024-05-09T07:37:47.367Z,7.63
2024-05-09T07:42:49.428Z,3.00
2024-05-09T07:49:16.414Z,2.67
2024-05-09T07:53:37.275Z,2.40
2024-05-09T07:58:34.860Z,2.58
2024-05-09T08:03:37.766Z,2.80
2024-05-09T08:08:39.760Z,2.58
2024-05-09T08:13:41.617Z,3.65
2024-05-09T08:18:43.496Z,3.63
2024-05-09T08:23:45.380Z,3.13
2024-05-09T08:28:47.453Z,2.92
2024-05-09T08:33:51.776Z,3.15
2024-05-09T08:38:54.080Z,2.10
2024-05-09T08:43:55.989Z,3.03
2024-05-09T08:48:59.743Z,3.47
2024-05-09T08:54:01.782Z,4.40
2024-05-09T08:59:06.739Z,3.97
2024-05-09T09:04:10.766Z,3.95
2024-05-09T09:09:12.853Z,2.83
2024-05-09T09:14:14.725Z,3.30
2024-05-09T09:19:16.848Z,2.08
2024-05-09T09:24:18.854Z,3.38
2024-05-09T09:29:21.014Z,3.15
2024-05-09T09:34:28.121Z,2.47
2024-05-09T09:39:32.594Z,3.95
2024-05-09T09:44:37.339Z,4.47
2024-05-09T09:49:43.421Z,4.15
2024-05-09T09:54:48.310Z,5.22
2024-05-09T09:59:50.652Z,4.22
2024-05-09T10:04:52.762Z,3.20
2024-05-09T10:09:58.059Z,5.43
2024-05-09T10:15:07.400Z,5.78
2024-05-09T10:20:17.963Z,4.93
2024-05-09T10:25:24.066Z,3.72
2024-05-09T10:30:34.090Z,5.00
2024-05-09T10:35:38.123Z,3.83
2024-05-09T10:40:41.472Z,6.75
2024-05-09T10:45:43.335Z,6.60
2024-05-09T10:50:47.067Z,3.53
2024-05-09T10:55:58.506Z,5.20
2024-05-09T11:01:02.460Z,6.38
2024-05-09T11:06:06.798Z,6.68
2024-05-09T11:11:10.601Z,5.55
2024-05-09T11:16:21.319Z,4.97
2024-05-09T11:21:24.554Z,5.35
2024-05-09T11:26:29.481Z,7.25
2024-05-09T11:31:31.800Z,4.75
2024-05-09T11:36:33.820Z,5.45
2024-05-09T11:41:36.041Z,5.22
2024-05-09T11:46:37.847Z,4.45
2024-05-09T11:51:39.719Z,8.25
2024-05-09T11:56:41.603Z,3.80
2024-05-09T12:01:43.742Z,5.38
2024-05-09T12:06:46.374Z,3.80
2024-05-09T12:11:48.313Z,6.45
2024-05-09T12:16:50.285Z,6.25
2024-05-09T12:21:52.189Z,6.05
2024-05-09T12:26:54.461Z,3.45
2024-05-09T12:31:56.311Z,5.18
2024-05-09T12:36:58.370Z,5.35
2024-05-09T12:42:00.525Z,6.30
2024-05-09T12:47:02.462Z,3.45
2024-05-09T12:52:04.696Z,3.60
2024-05-09T12:57:06.599Z,6.15
2024-05-09T13:02:08.573Z,4.00
2024-05-09T13:07:10.626Z,3.60
2024-05-09T13:12:12.452Z,1.98
2024-05-09T13:17:14.281Z,2.70
2024-05-09T13:22:16.186Z,4.65
2024-05-09T13:27:18.059Z,2.05
2024-05-09T13:32:19.933Z,3.35
2024-05-09T13:37:21.891Z,3.70
2024-05-09T13:42:24.101Z,3.83
2024-05-09T13:47:26.138Z,6.28
2024-05-09T13:52:28.031Z,3.40
2024-05-09T13:57:31.126Z,2.45
2024-05-09T14:02:33.090Z,4.28
2024-05-09T14:07:35.034Z,5.60
2024-05-09T14:12:36.937Z,8.77
2024-05-09T14:17:38.935Z,4.47
2024-05-09T14:22:41.297Z,4.07
2024-05-09T14:27:43.563Z,3.25
2024-05-09T14:32:45.504Z,5.85
2024-05-09T14:37:47.460Z,5.82
2024-05-09T14:42:49.364Z,5.32
2024-05-09T14:47:51.521Z,4.93
2024-05-09T14:52:53.409Z,5.72
2024-05-09T14:57:55.558Z,5.43
2024-05-09T15:02:57.485Z,5.60
2024-05-09T15:07:59.811Z,6.45
2024-05-09T15:13:01.888Z,4.95
2024-05-09T15:18:07.146Z,5.82
2024-05-09T15:23:09.118Z,6.43
2024-05-09T15:28:11.110Z,4.32
2024-05-09T15:33:13.085Z,9.55
2024-05-09T15:38:16.348Z,7.07
2024-05-09T15:43:21.048Z,6.00
2024-05-09T15:48:23.146Z,5.97
2024-05-09T15:53:25.162Z,6.10
2024-05-09T15:58:28.291Z,7.75
2024-05-09T16:03:30.393Z,7.57
2024-05-09T16:08:32.487Z,6.07
2024-05-09T16:13:34.381Z,9.73
2024-05-09T16:18:36.420Z,7.13
2024-05-09T16:23:40.521Z,7.00
2024-05-09T16:28:42.480Z,10.07
2024-05-09T16:33:44.538Z,5.82
2024-05-09T16:38:46.515Z,9.45
2024-05-09T16:43:48.531Z,6.30
2024-05-09T16:48:51.154Z,7.75
2024-05-09T16:53:53.105Z,7.47
2024-05-09T16:58:55.433Z,8.82
2024-05-09T17:03:58.034Z,8.95
2024-05-09T17:09:08.299Z,8.02
2024-05-09T17:14:13.655Z,6.88
2024-05-09T17:19:15.586Z,8.13
2024-05-09T17:24:17.462Z,5.85
2024-05-09T17:29:21.700Z,8.23
2024-05-09T17:34:24.796Z,9.00
2024-05-09T17:39:27.013Z,6.63
2024-05-09T17:44:29.097Z,7.57
2024-05-09T17:49:31.016Z,5.32
2024-05-09T17:54:32.968Z,9.75
2024-05-09T17:59:34.826Z,8.07
2024-05-09T18:04:36.710Z,6.47
2024-05-09T18:09:38.580Z,4.97
2024-05-09T18:14:40.388Z,8.50
2024-05-09T18:19:42.273Z,11.68
2024-05-09T18:24:44.260Z,8.50
2024-05-09T18:29:46.093Z,8.63
2024-05-09T18:34:48.038Z,7.18
2024-05-09T18:39:50.124Z,10.40
2024-05-09T18:44:52.466Z,6.15
2024-05-09T18:49:54.380Z,7.82
2024-05-09T18:54:56.353Z,8.07
2024-05-09T18:59:58.213Z,5.72
2024-05-09T19:05:00.080Z,4.93
2024-05-09T19:10:02.214Z,10.82
2024-05-09T19:15:04.346Z,4.68
2024-05-09T19:20:09.115Z,5.43
2024-05-09T19:25:13.507Z,4.97
2024-05-09T19:30:25.019Z,7.97
2024-05-09T19:35:35.936Z,6.43
2024-05-09T19:40:38.059Z,7.38
2024-05-09T19:45:40.162Z,7.13
2024-05-09T19:50:44.339Z,9.27
2024-05-09T19:55:46.973Z,6.03
2024-05-09T20:00:49.315Z,5.30
2024-05-09T20:05:51.308Z,10.57
2024-05-09T20:10:53.879Z,10.15
2024-05-09T20:15:55.871Z,6.93
2024-05-09T20:20:57.866Z,10.45
2024-05-09T20:26:02.241Z,6.35
2024-05-09T20:31:04.287Z,4.68
2024-05-09T20:36:06.329Z,8.70
2024-05-09T20:41:08.366Z,5.82
2024-05-09T20:46:10.226Z,9.15
2024-05-09T20:51:12.170Z,9.27
2024-05-09T20:56:14.027Z,6.97
2024-05-09T21:01:15.988Z,10.68
2024-05-09T21:06:19.195Z,9.65
2024-05-09T21:11:22.973Z,11.07
2024-05-09T21:16:24.978Z,8.10
2024-05-09T21:21:26.954Z,10.15
2024-05-09T21:26:29.655Z,9.63
2024-05-09T21:31:31.540Z,15.23
2024-05-09T21:36:33.685Z,14.05
2024-05-09T21:41:35.888Z,8.80
2024-05-09T21:46:37.890Z,11.88
2024-05-09T21:51:39.909Z,10.15
2024-05-09T21:56:41.727Z,9.55
2024-05-09T22:01:43.733Z,11.80
2024-05-09T22:06:45.636Z,14.15
2024-05-09T22:11:48.147Z,13.65
2024-05-09T22:16:52.223Z,13.80
2024-05-09T22:21:55.522Z,13.93
2024-05-09T22:26:57.447Z,12.57
2024-05-09T22:31:59.248Z,17.13
2024-05-09T22:37:01.319Z,15.80
2024-05-09T22:42:03.688Z,15.93
2024-05-09T22:47:05.562Z,11.30
2024-05-09T22:52:07.806Z,12.55
2024-05-09T22:57:09.703Z,10.25
2024-05-09T23:02:11.638Z,11.85
2024-05-09T23:07:13.595Z,10.48
2024-05-09T23:12:17.746Z,13.32
2024-05-09T23:17:19.672Z,14.32
2024-05-09T23:22:21.572Z,13.55
2024-05-09T23:27:23.410Z,13.57
2024-05-09T23:32:25.638Z,11.55
2024-05-09T23:37:27.938Z,11.68
2024-05-09T23:42:30.493Z,13.70
2024-05-09T23:47:32.436Z,13.27
2024-05-09T23:52:34.387Z,13.48
2024-05-09T23:57:36.243Z,13.18
